Sar-02 — UUAV3 — position and weather

sailwx.info

Track history (hours):
 
Tides and Currents Weather Stations Pressure Air Temp Water Temp Dewpoint Dewpoint Depression Visibility Wind Speed Wind Dir Waves Ship Positions

Sar-02

Last reported at 2018-Jun-24 06:33 UTC. Time now 2018-Jun-24 07:25 UTC.
Position N 46°21' E 030°42'.

Length 17 m; draft 0.6 m.

Type: SAR. MMSI: 272683000.

Date/timePositionNaut miles runAvg speedWind from/ knotsBaromVisibWave heightAir tempDewpointWater temp
2018-Jun-24 06:33N 46°21' E 030°42'0 0.0
2018-Jun-24 06:28N 46°21' E 030°42'0 0.0
2018-Jun-24 05:37N 46°21' E 030°42'0 0.0
2018-Jun-24 05:29N 46°21' E 030°42'0 0.0
2018-Jun-24 04:37N 46°21' E 030°42'0 0.0
2018-Jun-24 04:30N 46°21' E 030°42'0 0.0
2018-Jun-24 03:39N 46°21' E 030°42'0 0.0
2018-Jun-24 03:30N 46°21' E 030°42'0 0.0
2018-Jun-24 02:39N 46°21' E 030°42'0 0.0
2018-Jun-24 02:30N 46°21' E 030°42'0 0.0
2018-Jun-24 01:38N 46°21' E 030°42'0 0.0
2018-Jun-24 01:30N 46°21' E 030°42'0 0.0
2018-Jun-24 00:38N 46°21' E 030°42'0 0.0
2018-Jun-24 00:30N 46°21' E 030°42'0 0.0
2018-Jun-23 23:37N 46°21' E 030°42'0 0.0
2018-Jun-23 23:30N 46°21' E 030°42'3 3.1
2018-Jun-23 22:34N 46°20' E 030°38'0 0.0
2018-Jun-23 22:25N 46°20' E 030°38'1 1.5
2018-Jun-23 21:39N 46°20' E 030°40'1 6.7
2018-Jun-23 21:30N 46°19' E 030°41'2 1.8
2018-Jun-23 20:29N 46°21' E 030°42'7 1.5
2018-Jun-23 15:29N 46°13' E 030°43'7 8.7
2018-Jun-23 14:39N 46°21' E 030°42'0 0.0
2018-Jun-23 14:30N 46°21' E 030°42'5 6.4
2018-Jun-23 13:39N 46°16' E 030°39'1 6.3
2018-Jun-23 13:26N 46°17' E 030°40'4 5.2
2018-Jun-23 12:39N 46°21' E 030°42'0 0.0
2018-Jun-23 12:30N 46°21' E 030°42'0 0.0
2018-Jun-23 11:35N 46°21' E 030°42'0 0.0
2018-Jun-23 11:30N 46°21' E 030°42'0 0.0
2018-Jun-23 10:39N 46°21' E 030°42'0 0.0
2018-Jun-23 10:29N 46°21' E 030°42'0 0.0
2018-Jun-23 09:39N 46°21' E 030°42'0 0.0
2018-Jun-23 09:25N 46°21' E 030°42'0 0.0
2018-Jun-23 08:39N 46°21' E 030°42'0 0.0
2018-Jun-23 08:27N 46°21' E 030°42'0 0.0
2018-Jun-23 07:36N 46°21' E 030°42'0 0.0
2018-Jun-23 07:30N 46°21' E 030°42'0 0.0
2018-Jun-23 06:39N 46°21' E 030°42'0 0.0
2018-Jun-23 06:30N 46°21' E 030°42'0 0.0
2018-Jun-23 05:39N 46°21' E 030°42'0 0.0
2018-Jun-23 05:30N 46°21' E 030°42'0 0.0
2018-Jun-23 04:39N 46°21' E 030°42'0 0.0
2018-Jun-23 04:30N 46°21' E 030°42'0 0.0
2018-Jun-23 03:38N 46°21' E 030°42'0 0.0
2018-Jun-23 03:29N 46°21' E 030°42'0 0.0
2018-Jun-23 02:39N 46°21' E 030°42'0 0.0
2018-Jun-23 02:30N 46°21' E 030°42'0 0.0
2018-Jun-23 01:39N 46°21' E 030°42'0 0.0
2018-Jun-23 01:30N 46°21' E 030°42'0 0.0
2018-Jun-23 00:38N 46°21' E 030°42'0 0.0
2018-Jun-23 00:28N 46°21' E 030°42'0 0.0
2018-Jun-22 23:38N 46°21' E 030°42'0 0.0
2018-Jun-22 23:29N 46°21' E 030°42'0 0.0
2018-Jun-22 22:38N 46°21' E 030°42'0 0.0
2018-Jun-22 22:30N 46°21' E 030°42'0 0.0
2018-Jun-22 21:37N 46°21' E 030°42'0 0.0
2018-Jun-22 21:30N 46°21' E 030°42'0 0.0
2018-Jun-22 20:39N 46°21' E 030°42'0 0.0
2018-Jun-22 20:30N 46°21' E 030°42'0 0.0
2018-Jun-22 19:36N 46°21' E 030°42'0 0.0
2018-Jun-22 19:29N 46°21' E 030°42'0 0.0
2018-Jun-22 18:38N 46°21' E 030°42'0 0.0
2018-Jun-22 18:30N 46°21' E 030°42'0 0.0
2018-Jun-22 17:38N 46°21' E 030°42'0 0.0
2018-Jun-22 17:28N 46°21' E 030°42'0 0.0
2018-Jun-22 16:27N 46°21' E 030°42'0 0.0
2018-Jun-22 15:28N 46°21' E 030°42'0 0.0
2018-Jun-22 14:38N 46°21' E 030°42'0 0.0
2018-Jun-22 14:29N 46°21' E 030°42'0 0.0
2018-Jun-22 13:38N 46°21' E 030°42'0 0.0
2018-Jun-22 13:29N 46°21' E 030°42'0 0.0
2018-Jun-22 12:38N 46°21' E 030°42'0 0.0
2018-Jun-22 12:28N 46°21' E 030°42'0 0.0
2018-Jun-22 11:38N 46°21' E 030°42'0 0.0
2018-Jun-22 11:16N 46°21' E 030°42'0 0.0
2018-Jun-22 10:35N 46°21' E 030°42'0 0.0
2018-Jun-22 09:33N 46°21' E 030°42'2 2.7
2018-Jun-22 08:39N 46°20' E 030°39'1 3.9
2018-Jun-22 08:29N 46°20' E 030°38'1 1.2
2018-Jun-22 07:39N 46°20' E 030°39'1 8.7
2018-Jun-22 07:30N 46°19' E 030°41'712.9
2018-Jun-22 06:58N 46°25' E 030°47'816.9
2018-Jun-22 06:30N 46°32' E 030°49'0 0.9
2018-Jun-22 06:00N 46°33' E 030°49'0 0.0
2018-Jun-22 05:30N 46°33' E 030°49'0 0.0
2018-Jun-22 05:00N 46°33' E 030°49'0 0.0
2018-Jun-22 04:30N 46°33' E 030°49'0 0.0
2018-Jun-22 04:00N 46°33' E 030°49'0 0.0
2018-Jun-22 03:30N 46°33' E 030°49'0 0.0
2018-Jun-22 03:00N 46°33' E 030°49'0 0.0
2018-Jun-22 02:30N 46°33' E 030°49'0 0.0
2018-Jun-22 02:00N 46°33' E 030°49'0 0.0
2018-Jun-22 01:30N 46°33' E 030°49'0 0.0
2018-Jun-22 00:59N 46°33' E 030°49'0 0.0
2018-Jun-22 00:30N 46°33' E 030°49'0 0.0
2018-Jun-21 23:58N 46°33' E 030°49'0 0.0
2018-Jun-21 23:30N 46°33' E 030°49'0 0.0
2018-Jun-21 23:00N 46°33' E 030°49'0 0.0
2018-Jun-21 22:30N 46°33' E 030°49'0 0.0
2018-Jun-21 21:59N 46°33' E 030°49'0 0.0
2018-Jun-21 21:30N 46°33' E 030°49'0 0.0
2018-Jun-21 20:56N 46°33' E 030°49'0 0.0
2018-Jun-21 20:30N 46°33' E 030°49'0 0.0
2018-Jun-21 19:57N 46°33' E 030°49'0 0.0
2018-Jun-21 19:30N 46°33' E 030°49'0 0.0
2018-Jun-21 19:00N 46°33' E 030°49'0 0.0
2018-Jun-21 18:30N 46°33' E 030°49'0 0.0
2018-Jun-21 17:59N 46°33' E 030°49'0 0.0
2018-Jun-21 17:30N 46°33' E 030°49'0 0.0
2018-Jun-21 17:00N 46°33' E 030°49'0 0.0
2018-Jun-21 16:30N 46°33' E 030°49'0 0.0
2018-Jun-21 16:00N 46°33' E 030°49'0 0.0
2018-Jun-21 15:30N 46°33' E 030°49'0 0.0
2018-Jun-21 15:00N 46°33' E 030°49'0 0.0
2018-Jun-21 14:30N 46°33' E 030°49'0 0.0
2018-Jun-21 13:58N 46°33' E 030°49'0 0.0
2018-Jun-21 13:30N 46°33' E 030°49'0 0.0
2018-Jun-21 13:00N 46°33' E 030°49'0 0.0
2018-Jun-21 12:30N 46°33' E 030°49'0 0.0
2018-Jun-21 12:00N 46°33' E 030°49'0 0.0
2018-Jun-21 11:30N 46°33' E 030°49'0 0.0
2018-Jun-21 11:00N 46°33' E 030°49'0 0.0
2018-Jun-21 10:28N 46°33' E 030°49'0 0.0
2018-Jun-21 10:00N 46°33' E 030°49'0 0.0
2018-Jun-21 09:30N 46°33' E 030°49'0 0.0
2018-Jun-21 08:58N 46°33' E 030°49'0 0.0
2018-Jun-21 08:30N 46°33' E 030°49'0 0.0
2018-Jun-21 08:00N 46°33' E 030°49'0 0.0
2018-Jun-21 07:30N 46°33' E 030°49'0 0.0
2018-Jun-21 07:00N 46°33' E 030°49'0 0.0
2018-Jun-21 06:30N 46°33' E 030°49'0 0.0
2018-Jun-21 06:00N 46°33' E 030°49'0 0.0
2018-Jun-21 05:30N 46°33' E 030°49'0 0.0
2018-Jun-21 05:00N 46°33' E 030°49'0 0.0
2018-Jun-21 04:30N 46°33' E 030°49'0 0.0
2018-Jun-21 04:00N 46°33' E 030°49'0 0.0
2018-Jun-21 03:30N 46°33' E 030°49'0 0.0
2018-Jun-21 02:58N 46°33' E 030°49'0 0.0
2018-Jun-21 02:30N 46°33' E 030°49'0 0.0
2018-Jun-21 02:00N 46°33' E 030°49'0 0.0
2018-Jun-21 01:30N 46°33' E 030°49'0 0.0
2018-Jun-21 00:56N 46°33' E 030°49'0 0.0
2018-Jun-21 00:30N 46°33' E 030°49'0 0.0
2018-Jun-21 00:00N 46°33' E 030°49'0 0.0
2018-Jun-20 23:30N 46°33' E 030°49'0 0.0
2018-Jun-20 23:00N 46°33' E 030°49'0 0.0
2018-Jun-20 22:30N 46°33' E 030°49'0 0.0
2018-Jun-20 22:00N 46°33' E 030°49'0 0.0
2018-Jun-20 21:30N 46°33' E 030°49'0 0.0
2018-Jun-20 20:59N 46°33' E 030°49'0 0.0
2018-Jun-20 20:30N 46°33' E 030°49'0 0.0
2018-Jun-20 20:00N 46°33' E 030°49'0 0.0
2018-Jun-20 19:30N 46°33' E 030°49'0 0.0
2018-Jun-20 19:00N 46°33' E 030°49'0 0.0
2018-Jun-20 18:30N 46°33' E 030°49'0 0.0
2018-Jun-20 17:58N 46°33' E 030°49'0 0.0
2018-Jun-20 17:30N 46°33' E 030°49'0 0.0
2018-Jun-20 17:00N 46°33' E 030°49'0 0.0
2018-Jun-20 16:30N 46°33' E 030°49'0 0.0
2018-Jun-20 16:00N 46°33' E 030°49'0 0.0
2018-Jun-20 15:30N 46°33' E 030°49'610.6
2018-Jun-20 14:58N 46°27' E 030°48'818.0
2018-Jun-20 14:30N 46°20' E 030°42'3 3.4
2018-Jun-20 13:38N 46°20' E 030°38'0 0.0
2018-Jun-20 13:30N 46°20' E 030°38'912.9
2018-Jun-20 12:48N 46°24' E 030°50'826.7
2018-Jun-20 12:31N 46°30' E 030°56'5 2.5
2018-Jun-20 10:27N 46°35' E 030°60'0 0.0
2018-Jun-20 09:59N 46°35' E 030°60'0 0.8
2018-Jun-20 09:30N 46°34' E 031°00'0 0.7
2018-Jun-20 08:57N 46°34' E 030°60'0 0.2
2018-Jun-20 08:30N 46°34' E 030°60'1 1.7
2018-Jun-20 08:00N 46°34' E 030°59'0 0.6
2018-Jun-20 07:30N 46°33' E 030°58'1 1.1
2018-Jun-20 07:00N 46°34' E 030°59'2 4.7
2018-Jun-20 06:30N 46°33' E 030°56'5 9.3
2018-Jun-20 06:00N 46°33' E 030°49'0 0.0
2018-Jun-20 05:28N 46°33' E 030°49'0 0.0
2018-Jun-20 05:01N 46°33' E 030°49'0 0.0
2018-Jun-20 04:30N 46°33' E 030°49'0 0.0
2018-Jun-20 04:00N 46°33' E 030°49'0 0.0
2018-Jun-20 03:30N 46°33' E 030°49'0 0.0
2018-Jun-20 03:00N 46°33' E 030°49'0 0.0
2018-Jun-20 02:28N 46°33' E 030°49'0 0.0
2018-Jun-20 01:58N 46°33' E 030°49'0 0.0
2018-Jun-20 01:30N 46°33' E 030°49'0 0.0
2018-Jun-20 01:00N 46°33' E 030°49'0 0.0
2018-Jun-20 00:30N 46°33' E 030°49'0 0.0
2018-Jun-20 00:00N 46°33' E 030°49'0 0.0
2018-Jun-19 23:30N 46°33' E 030°49'0 0.0
2018-Jun-19 23:00N 46°33' E 030°49'0 0.0
2018-Jun-19 22:29N 46°33' E 030°49'0 0.0
2018-Jun-19 21:04N 46°33' E 030°49'0 0.0
2018-Jun-19 21:00N 46°33' E 030°49'0 0.0
2018-Jun-19 20:28N 46°33' E 030°49'0 0.0
2018-Jun-19 20:00N 46°33' E 030°49'0 0.0
2018-Jun-19 19:30N 46°33' E 030°49'0 0.0
2018-Jun-19 19:00N 46°33' E 030°49'0 0.0
2018-Jun-19 18:31N 46°33' E 030°49'0 0.0
2018-Jun-19 18:00N 46°33' E 030°49'0 0.0
2018-Jun-19 17:30N 46°33' E 030°49'0 0.0
2018-Jun-19 17:00N 46°33' E 030°49'0 0.0
2018-Jun-19 16:30N 46°33' E 030°49'0 0.0
2018-Jun-19 16:00N 46°33' E 030°49'0 0.0
2018-Jun-19 15:30N 46°33' E 030°49'0 0.0
2018-Jun-19 15:00N 46°33' E 030°49'0 0.0
2018-Jun-19 14:30N 46°33' E 030°49'0 0.0
2018-Jun-19 14:00N 46°33' E 030°49'0 0.0
2018-Jun-19 13:30N 46°33' E 030°49'0 0.0
2018-Jun-19 13:00N 46°33' E 030°49'0 0.0
2018-Jun-19 12:30N 46°33' E 030°49'0 0.0
2018-Jun-19 12:00N 46°33' E 030°49'0 0.0
2018-Jun-19 11:30N 46°33' E 030°49'0 0.0
2018-Jun-19 11:00N 46°33' E 030°49'0 0.0
2018-Jun-19 10:30N 46°33' E 030°49'0 0.0
2018-Jun-19 09:59N 46°33' E 030°49'0 0.0
2018-Jun-19 09:30N 46°33' E 030°49'0 0.0
2018-Jun-19 09:00N 46°33' E 030°49'0 0.0
2018-Jun-19 08:30N 46°33' E 030°49'0 0.0
2018-Jun-19 08:00N 46°33' E 030°49'0 0.0
2018-Jun-19 07:30N 46°33' E 030°49'0 0.0
2018-Jun-19 06:59N 46°33' E 030°49'0 0.0
2018-Jun-19 06:30N 46°33' E 030°49'0 0.0
2018-Jun-19 06:00N 46°33' E 030°49'0 0.0
2018-Jun-19 05:30N 46°33' E 030°49'0 0.0
2018-Jun-19 05:00N 46°33' E 030°49'0 0.0
2018-Jun-19 04:30N 46°33' E 030°49'0 0.0
2018-Jun-19 03:58N 46°33' E 030°49'0 0.0
2018-Jun-19 03:30N 46°33' E 030°49'0 0.0
2018-Jun-19 03:00N 46°33' E 030°49'0 0.0
2018-Jun-19 02:30N 46°33' E 030°49'0 0.0
2018-Jun-19 02:00N 46°33' E 030°49'0 0.0
2018-Jun-19 01:30N 46°33' E 030°49'0 0.0
2018-Jun-19 01:00N 46°33' E 030°49'0 0.0
2018-Jun-19 00:30N 46°33' E 030°49'0 0.0
2018-Jun-19 00:00N 46°33' E 030°49'0 0.0
2018-Jun-18 23:28N 46°33' E 030°49'0 0.0
2018-Jun-18 23:00N 46°33' E 030°49'0 0.0
2018-Jun-18 22:31N 46°33' E 030°49'0 0.0
2018-Jun-18 21:59N 46°33' E 030°49'0 0.0
2018-Jun-18 21:30N 46°33' E 030°49'0 0.0
2018-Jun-18 20:59N 46°33' E 030°49'0 0.0
2018-Jun-18 20:30N 46°33' E 030°49'0 0.0
2018-Jun-18 19:56N 46°33' E 030°49'0 0.0
2018-Jun-18 19:30N 46°33' E 030°49'0 0.0
2018-Jun-18 19:00N 46°33' E 030°49'0 0.0
2018-Jun-18 18:31N 46°33' E 030°49'0 0.0
2018-Jun-18 18:00N 46°33' E 030°49'0 0.0
2018-Jun-18 17:30N 46°33' E 030°49'0 0.0
2018-Jun-18 17:00N 46°33' E 030°49'0 0.0
2018-Jun-18 16:30N 46°33' E 030°49'0 0.0
2018-Jun-18 16:00N 46°33' E 030°49'0 0.0
2018-Jun-18 15:30N 46°33' E 030°49'0 0.0
2018-Jun-18 15:00N 46°33' E 030°49'0 0.0
2018-Jun-18 14:30N 46°33' E 030°49'0 0.0
2018-Jun-18 14:00N 46°33' E 030°49'0 0.0
2018-Jun-18 13:30N 46°33' E 030°49'0 0.0
2018-Jun-18 13:00N 46°33' E 030°49'0 0.0
2018-Jun-18 12:29N 46°33' E 030°49'0 0.0
2018-Jun-18 12:00N 46°33' E 030°49'0 0.0
2018-Jun-18 11:25N 46°33' E 030°49'0 0.0
2018-Jun-18 11:00N 46°33' E 030°49'0 0.0
2018-Jun-18 10:28N 46°33' E 030°49'0 0.0
2018-Jun-18 10:00N 46°33' E 030°49'0 0.0
2018-Jun-18 09:30N 46°33' E 030°49'0 0.0
2018-Jun-18 09:00N 46°33' E 030°49'0 0.0
2018-Jun-18 08:30N 46°33' E 030°49'0 0.0
2018-Jun-18 08:00N 46°33' E 030°49'0 0.0
2018-Jun-18 07:30N 46°33' E 030°49'0 0.0
2018-Jun-18 07:00N 46°33' E 030°49'0 0.0
2018-Jun-18 06:30N 46°33' E 030°49'0 0.0
2018-Jun-18 06:00N 46°33' E 030°49'0 0.0
2018-Jun-18 05:30N 46°33' E 030°49'0 0.0
2018-Jun-18 05:00N 46°33' E 030°49'0 0.0
2018-Jun-18 04:30N 46°33' E 030°49'0 0.0
2018-Jun-18 04:00N 46°33' E 030°49'0 0.0
2018-Jun-18 03:30N 46°33' E 030°49'0 0.0
2018-Jun-18 03:00N 46°33' E 030°49'0 0.0
2018-Jun-18 02:30N 46°33' E 030°49'0 0.0
2018-Jun-18 02:00N 46°33' E 030°49'0 0.0
2018-Jun-18 01:30N 46°33' E 030°49'0 0.0
2018-Jun-18 01:00N 46°33' E 030°49'0 0.0
2018-Jun-18 00:30N 46°33' E 030°49'0 0.0
2018-Jun-18 00:00N 46°33' E 030°49'0 0.0
2018-Jun-17 23:31N 46°33' E 030°49'0 0.0
2018-Jun-17 23:00N 46°33' E 030°49'0 0.0
2018-Jun-17 22:30N 46°33' E 030°49'0 0.0
2018-Jun-17 21:59N 46°33' E 030°49'0 0.0
2018-Jun-17 21:30N 46°33' E 030°49'0 0.0
2018-Jun-17 21:00N 46°33' E 030°49'0 0.0
2018-Jun-17 20:30N 46°33' E 030°49'0 0.0
2018-Jun-17 20:00N 46°33' E 030°49'0 0.0
2018-Jun-17 19:29N 46°33' E 030°49'0 0.0
2018-Jun-17 19:00N 46°33' E 030°49'0 0.0
2018-Jun-17 18:27N 46°33' E 030°49'0 0.0
2018-Jun-17 18:00N 46°33' E 030°49'0 0.0
2018-Jun-17 17:30N 46°33' E 030°49'0 0.0
2018-Jun-17 16:59N 46°33' E 030°49'0 0.0
2018-Jun-17 16:30N 46°33' E 030°49'0 0.0
2018-Jun-17 16:00N 46°33' E 030°49'0 0.0
2018-Jun-17 15:30N 46°33' E 030°49'0 0.0
2018-Jun-17 15:00N 46°33' E 030°49'0 0.0
2018-Jun-17 14:30N 46°33' E 030°49'0 0.0
2018-Jun-17 14:01N 46°33' E 030°49'0 0.0
2018-Jun-17 13:30N 46°33' E 030°49'0 0.0
2018-Jun-17 13:00N 46°33' E 030°49'0 0.0
2018-Jun-17 12:31N 46°33' E 030°49'0 0.0
2018-Jun-17 12:00N 46°33' E 030°49'0 0.0
2018-Jun-17 11:30N 46°33' E 030°49'0 0.0
2018-Jun-17 11:00N 46°33' E 030°49'0 0.0
2018-Jun-17 10:28N 46°33' E 030°49'0 0.0
2018-Jun-17 10:00N 46°33' E 030°49'0 0.0
2018-Jun-17 09:30N 46°33' E 030°49'0 0.0
2018-Jun-17 09:00N 46°33' E 030°49'0 0.0
2018-Jun-17 08:30N 46°33' E 030°49'0 0.0
2018-Jun-17 08:00N 46°33' E 030°49'0 0.0
2018-Jun-17 07:29N 46°33' E 030°49'0 0.0
2018-Jun-17 07:00N 46°33' E 030°49'0 0.0
2018-Jun-17 06:30N 46°33' E 030°49'0 0.0
2018-Jun-17 06:00N 46°33' E 030°49'0 0.0
2018-Jun-17 05:29N 46°33' E 030°49'0 0.0
2018-Jun-17 05:00N 46°33' E 030°49'0 0.0
2018-Jun-17 04:30N 46°33' E 030°49'0 0.0
2018-Jun-17 04:00N 46°33' E 030°49'0 0.0
2018-Jun-17 03:30N 46°33' E 030°49'0 0.0
2018-Jun-17 02:59N 46°33' E 030°49'0 0.0
2018-Jun-17 02:29N 46°33' E 030°49'0 0.0
2018-Jun-17 02:00N 46°33' E 030°49'0 0.0
2018-Jun-17 01:30N 46°33' E 030°49'0 0.0
2018-Jun-17 01:00N 46°33' E 030°49'0 0.0
2018-Jun-17 00:31N 46°33' E 030°49'0 0.0
2018-Jun-17 00:00N 46°33' E 030°49'0 0.0
2018-Jun-16 23:30N 46°33' E 030°49'0 0.0
2018-Jun-16 23:00N 46°33' E 030°49'0 0.0
2018-Jun-16 22:25N 46°33' E 030°49'0 0.0
2018-Jun-16 21:59N 46°33' E 030°49'0 0.0
2018-Jun-16 21:29N 46°33' E 030°49'0 0.0
2018-Jun-16 20:59N 46°33' E 030°49'0 0.0
2018-Jun-16 20:27N 46°33' E 030°49'0 0.0
2018-Jun-16 20:00N 46°33' E 030°49'0 0.0
2018-Jun-16 19:30N 46°33' E 030°49'0 0.0
2018-Jun-16 19:00N 46°33' E 030°49'0 0.0
2018-Jun-16 18:30N 46°33' E 030°49'0 0.0
2018-Jun-16 18:00N 46°33' E 030°49'0 0.0
2018-Jun-16 17:31N 46°33' E 030°49'0 0.0
2018-Jun-16 17:00N 46°33' E 030°49'0 0.0
2018-Jun-16 16:29N 46°33' E 030°49'0 0.0
2018-Jun-16 16:00N 46°33' E 030°49'0 0.0
2018-Jun-16 15:30N 46°33' E 030°49'0 0.0
2018-Jun-16 15:00N 46°33' E 030°49'0 0.0
2018-Jun-16 14:30N 46°33' E 030°49'0 0.0
2018-Jun-16 13:59N 46°33' E 030°49'0 0.0
2018-Jun-16 13:30N 46°33' E 030°49'0 0.0
2018-Jun-16 13:00N 46°33' E 030°49'0 0.0
2018-Jun-16 12:24N 46°33' E 030°49'0 0.0
2018-Jun-16 11:58N 46°33' E 030°49'0 0.0
2018-Jun-16 11:28N 46°33' E 030°49'0 0.0
2018-Jun-16 11:00N 46°33' E 030°49'0 0.0
2018-Jun-16 10:30N 46°33' E 030°49'0 0.0
2018-Jun-16 09:59N 46°33' E 030°49'0 0.0
2018-Jun-16 09:30N 46°33' E 030°49'0 0.0
2018-Jun-16 09:00N 46°33' E 030°49'0 0.0
2018-Jun-16 08:30N 46°33' E 030°49'0 0.0
2018-Jun-16 08:00N 46°33' E 030°49'0 0.0
2018-Jun-16 07:30N 46°33' E 030°49'0 0.0
2018-Jun-16 07:00N 46°33' E 030°49'0 0.0
2018-Jun-16 06:30N 46°33' E 030°49'0 0.0
2018-Jun-16 05:56N 46°33' E 030°49'0 0.0
2018-Jun-16 05:28N 46°33' E 030°49'0 0.0
2018-Jun-16 04:59N 46°33' E 030°49'0 0.0
2018-Jun-16 04:30N 46°33' E 030°49'0 0.0
2018-Jun-16 03:55N 46°33' E 030°49'0 0.0
2018-Jun-16 03:30N 46°33' E 030°49'0 0.0
2018-Jun-16 02:56N 46°33' E 030°49'0 0.0
2018-Jun-16 02:26N 46°33' E 030°49'0 0.0
2018-Jun-16 01:57N 46°33' E 030°49'0 0.0
2018-Jun-16 01:30N 46°33' E 030°49'0 0.0
2018-Jun-16 00:51N 46°33' E 030°49'0 0.0
2018-Jun-16 00:29N 46°33' E 030°49'0 0.0
2018-Jun-15 23:51N 46°33' E 030°49'0 0.0
2018-Jun-15 23:30N 46°33' E 030°49'0 0.0
2018-Jun-15 22:57N 46°33' E 030°49'0 0.0
2018-Jun-15 22:29N 46°33' E 030°49'0 0.0
2018-Jun-15 21:48N 46°33' E 030°49'0 0.0
2018-Jun-15 21:17N 46°33' E 030°49'0 0.0
2018-Jun-15 20:56N 46°33' E 030°49'0 0.0
2018-Jun-15 20:30N 46°33' E 030°49'0 0.0
2018-Jun-15 19:59N 46°33' E 030°49'0 0.0
2018-Jun-15 19:30N 46°33' E 030°49'0 0.0
2018-Jun-15 18:59N 46°33' E 030°49'0 0.0
2018-Jun-15 18:24N 46°33' E 030°49'0 0.0
2018-Jun-15 17:59N 46°33' E 030°49'0 0.0
2018-Jun-15 17:27N 46°33' E 030°49'0 0.0
2018-Jun-15 16:58N 46°33' E 030°49'0 0.0
2018-Jun-15 16:29N 46°33' E 030°49'0 0.0
2018-Jun-15 15:58N 46°33' E 030°49'0 0.0
2018-Jun-15 15:29N 46°33' E 030°49'0 0.0
2018-Jun-15 14:56N 46°33' E 030°49'0 0.0
2018-Jun-15 14:28N 46°33' E 030°49'0 0.0
2018-Jun-15 13:59N 46°33' E 030°49'0 0.0
2018-Jun-15 13:29N 46°33' E 030°49'0 0.0
2018-Jun-15 12:59N 46°33' E 030°49'0 0.0
2018-Jun-15 12:30N 46°33' E 030°49'0 0.0
2018-Jun-15 12:00N 46°33' E 030°49'0 0.0
2018-Jun-15 11:23N 46°33' E 030°49'0 0.0
2018-Jun-15 10:59N 46°33' E 030°49'0 0.0
2018-Jun-15 10:29N 46°33' E 030°49'0 0.0
2018-Jun-15 09:59N 46°33' E 030°49'0 0.0
2018-Jun-15 09:14N 46°33' E 030°49'0 0.0
2018-Jun-15 08:59N 46°33' E 030°49'0 0.0
2018-Jun-15 08:30N 46°33' E 030°49'0 0.0
2018-Jun-15 08:00N 46°33' E 030°49'0 0.0
2018-Jun-15 07:30N 46°33' E 030°49'0 0.0
2018-Jun-15 07:00N 46°33' E 030°49'0 0.0
2018-Jun-15 06:30N 46°33' E 030°49'0 0.0
2018-Jun-15 05:51N 46°33' E 030°49'0 0.0
2018-Jun-15 05:17N 46°33' E 030°49'0 0.0
2018-Jun-15 04:53N 46°33' E 030°49'0 0.0
2018-Jun-15 04:30N 46°33' E 030°49'0 0.0
2018-Jun-15 03:55N 46°33' E 030°49'0 0.0
2018-Jun-15 03:27N 46°33' E 030°49'0 0.0
2018-Jun-15 02:59N 46°33' E 030°49'0 0.0
2018-Jun-15 02:26N 46°33' E 030°49'0 0.0
2018-Jun-15 01:59N 46°33' E 030°49'0 0.0
2018-Jun-15 01:14N 46°33' E 030°49'0 0.0
2018-Jun-15 00:58N 46°33' E 030°49'0 0.0
2018-Jun-15 00:22N 46°33' E 030°49'0 0.0
2018-Jun-15 00:01N 46°33' E 030°49'0 0.0
2018-Jun-14 23:30N 46°33' E 030°49'0 0.0
2018-Jun-14 23:00N 46°33' E 030°49'0 0.0
2018-Jun-14 22:30N 46°33' E 030°49'0 0.0
2018-Jun-14 22:00N 46°33' E 030°49'0 0.0
2018-Jun-14 21:30N 46°33' E 030°49'0 0.0
2018-Jun-14 20:58N 46°33' E 030°49'0 0.0
2018-Jun-14 20:30N 46°33' E 030°49'0 0.0
2018-Jun-14 20:00N 46°33' E 030°49'0 0.0
2018-Jun-14 19:30N 46°33' E 030°49'0 0.0
2018-Jun-14 19:00N 46°33' E 030°49'0 0.0
2018-Jun-14 18:30N 46°33' E 030°49'0 0.0
2018-Jun-14 18:00N 46°33' E 030°49'0 0.0
2018-Jun-14 17:30N 46°33' E 030°49'0 0.0
2018-Jun-14 17:00N 46°33' E 030°49'0 0.0
2018-Jun-14 16:30N 46°33' E 030°49'0 0.0
2018-Jun-14 16:00N 46°33' E 030°49'0 0.0
2018-Jun-14 15:30N 46°33' E 030°49'0 0.0
2018-Jun-14 15:00N 46°33' E 030°49'0 0.0
2018-Jun-14 14:30N 46°33' E 030°49'0 0.0
2018-Jun-14 14:00N 46°33' E 030°49'0 0.0
2018-Jun-14 13:30N 46°33' E 030°49'0 0.0
2018-Jun-14 13:00N 46°33' E 030°49'0 0.0
2018-Jun-14 12:29N 46°33' E 030°49'0 0.0
2018-Jun-14 11:58N 46°33' E 030°49'0 0.0
2018-Jun-14 11:29N 46°33' E 030°49'0 0.0
2018-Jun-14 10:59N 46°33' E 030°49'0 0.0
2018-Jun-14 10:29N 46°33' E 030°49'0 0.0
2018-Jun-14 10:00N 46°33' E 030°49'0 0.0
2018-Jun-14 09:26N 46°33' E 030°49'0 0.0
2018-Jun-14 08:57N 46°33' E 030°49'0 0.0
2018-Jun-14 08:30N 46°33' E 030°49'0 0.0
2018-Jun-14 08:00N 46°33' E 030°49'0 0.0
2018-Jun-14 07:30N 46°33' E 030°49'0 0.0
2018-Jun-14 07:00N 46°33' E 030°49'  
Track history (hours):
 
Tides and Currents Weather Stations Pressure Air Temp Water Temp Dewpoint Dewpoint Depression Visibility Wind Speed Wind Dir Waves Ship Positions

Sar-02

Last reported at 2018-Jun-24 06:33 UTC. Time now 2018-Jun-24 07:25 UTC.
Position N 46°21' E 030°42'.

Length 17 m; draft 0.6 m.

Type: SAR. MMSI: 272683000.

Date/timePositionNaut miles runAvg speedWind from/ knotsBaromVisibWave heightAir tempDewpointWater temp
2018-Jun-24 06:33N 46°21' E 030°42'0 0.0
2018-Jun-24 06:28N 46°21' E 030°42'0 0.0
2018-Jun-24 05:37N 46°21' E 030°42'0 0.0
2018-Jun-24 05:29N 46°21' E 030°42'0 0.0
2018-Jun-24 04:37N 46°21' E 030°42'0 0.0
2018-Jun-24 04:30N 46°21' E 030°42'0 0.0
2018-Jun-24 03:39N 46°21' E 030°42'0 0.0
2018-Jun-24 03:30N 46°21' E 030°42'0 0.0
2018-Jun-24 02:39N 46°21' E 030°42'0 0.0
2018-Jun-24 02:30N 46°21' E 030°42'0 0.0
2018-Jun-24 01:38N 46°21' E 030°42'0 0.0
2018-Jun-24 01:30N 46°21' E 030°42'0 0.0
2018-Jun-24 00:38N 46°21' E 030°42'0 0.0
2018-Jun-24 00:30N 46°21' E 030°42'0 0.0
2018-Jun-23 23:37N 46°21' E 030°42'0 0.0
2018-Jun-23 23:30N 46°21' E 030°42'3 3.1
2018-Jun-23 22:34N 46°20' E 030°38'0 0.0
2018-Jun-23 22:25N 46°20' E 030°38'1 1.5
2018-Jun-23 21:39N 46°20' E 030°40'1 6.7
2018-Jun-23 21:30N 46°19' E 030°41'2 1.8
2018-Jun-23 20:29N 46°21' E 030°42'7 1.5
2018-Jun-23 15:29N 46°13' E 030°43'7 8.7
2018-Jun-23 14:39N 46°21' E 030°42'0 0.0
2018-Jun-23 14:30N 46°21' E 030°42'5 6.4
2018-Jun-23 13:39N 46°16' E 030°39'1 6.3
2018-Jun-23 13:26N 46°17' E 030°40'4 5.2
2018-Jun-23 12:39N 46°21' E 030°42'0 0.0
2018-Jun-23 12:30N 46°21' E 030°42'0 0.0
2018-Jun-23 11:35N 46°21' E 030°42'0 0.0
2018-Jun-23 11:30N 46°21' E 030°42'0 0.0
2018-Jun-23 10:39N 46°21' E 030°42'0 0.0
2018-Jun-23 10:29N 46°21' E 030°42'0 0.0
2018-Jun-23 09:39N 46°21' E 030°42'0 0.0
2018-Jun-23 09:25N 46°21' E 030°42'0 0.0
2018-Jun-23 08:39N 46°21' E 030°42'0 0.0
2018-Jun-23 08:27N 46°21' E 030°42'0 0.0
2018-Jun-23 07:36N 46°21' E 030°42'0 0.0
2018-Jun-23 07:30N 46°21' E 030°42'0 0.0
2018-Jun-23 06:39N 46°21' E 030°42'0 0.0
2018-Jun-23 06:30N 46°21' E 030°42'0 0.0
2018-Jun-23 05:39N 46°21' E 030°42'0 0.0
2018-Jun-23 05:30N 46°21' E 030°42'0 0.0
2018-Jun-23 04:39N 46°21' E 030°42'0 0.0
2018-Jun-23 04:30N 46°21' E 030°42'0 0.0
2018-Jun-23 03:38N 46°21' E 030°42'0 0.0
2018-Jun-23 03:29N 46°21' E 030°42'0 0.0
2018-Jun-23 02:39N 46°21' E 030°42'0 0.0
2018-Jun-23 02:30N 46°21' E 030°42'0 0.0
2018-Jun-23 01:39N 46°21' E 030°42'0 0.0
2018-Jun-23 01:30N 46°21' E 030°42'0 0.0
2018-Jun-23 00:38N 46°21' E 030°42'0 0.0
2018-Jun-23 00:28N 46°21' E 030°42'0 0.0
2018-Jun-22 23:38N 46°21' E 030°42'0 0.0
2018-Jun-22 23:29N 46°21' E 030°42'0 0.0
2018-Jun-22 22:38N 46°21' E 030°42'0 0.0
2018-Jun-22 22:30N 46°21' E 030°42'0 0.0
2018-Jun-22 21:37N 46°21' E 030°42'0 0.0
2018-Jun-22 21:30N 46°21' E 030°42'0 0.0
2018-Jun-22 20:39N 46°21' E 030°42'0 0.0
2018-Jun-22 20:30N 46°21' E 030°42'0 0.0
2018-Jun-22 19:36N 46°21' E 030°42'0 0.0
2018-Jun-22 19:29N 46°21' E 030°42'0 0.0
2018-Jun-22 18:38N 46°21' E 030°42'0 0.0
2018-Jun-22 18:30N 46°21' E 030°42'0 0.0
2018-Jun-22 17:38N 46°21' E 030°42'0 0.0
2018-Jun-22 17:28N 46°21' E 030°42'0 0.0
2018-Jun-22 16:27N 46°21' E 030°42'0 0.0
2018-Jun-22 15:28N 46°21' E 030°42'0 0.0
2018-Jun-22 14:38N 46°21' E 030°42'0 0.0
2018-Jun-22 14:29N 46°21' E 030°42'0 0.0
2018-Jun-22 13:38N 46°21' E 030°42'0 0.0
2018-Jun-22 13:29N 46°21' E 030°42'0 0.0
2018-Jun-22 12:38N 46°21' E 030°42'0 0.0
2018-Jun-22 12:28N 46°21' E 030°42'0 0.0
2018-Jun-22 11:38N 46°21' E 030°42'0 0.0
2018-Jun-22 11:16N 46°21' E 030°42'0 0.0
2018-Jun-22 10:35N 46°21' E 030°42'0 0.0
2018-Jun-22 09:33N 46°21' E 030°42'2 2.7
2018-Jun-22 08:39N 46°20' E 030°39'1 3.9
2018-Jun-22 08:29N 46°20' E 030°38'1 1.2
2018-Jun-22 07:39N 46°20' E 030°39'1 8.7
2018-Jun-22 07:30N 46°19' E 030°41'712.9
2018-Jun-22 06:58N 46°25' E 030°47'816.9
2018-Jun-22 06:30N 46°32' E 030°49'0 0.9
2018-Jun-22 06:00N 46°33' E 030°49'0 0.0
2018-Jun-22 05:30N 46°33' E 030°49'0 0.0
2018-Jun-22 05:00N 46°33' E 030°49'0 0.0
2018-Jun-22 04:30N 46°33' E 030°49'0 0.0
2018-Jun-22 04:00N 46°33' E 030°49'0 0.0
2018-Jun-22 03:30N 46°33' E 030°49'0 0.0
2018-Jun-22 03:00N 46°33' E 030°49'0 0.0
2018-Jun-22 02:30N 46°33' E 030°49'0 0.0
2018-Jun-22 02:00N 46°33' E 030°49'0 0.0
2018-Jun-22 01:30N 46°33' E 030°49'0 0.0
2018-Jun-22 00:59N 46°33' E 030°49'0 0.0
2018-Jun-22 00:30N 46°33' E 030°49'0 0.0
2018-Jun-21 23:58N 46°33' E 030°49'0 0.0
2018-Jun-21 23:30N 46°33' E 030°49'0 0.0
2018-Jun-21 23:00N 46°33' E 030°49'0 0.0
2018-Jun-21 22:30N 46°33' E 030°49'0 0.0
2018-Jun-21 21:59N 46°33' E 030°49'0 0.0
2018-Jun-21 21:30N 46°33' E 030°49'0 0.0
2018-Jun-21 20:56N 46°33' E 030°49'0 0.0
2018-Jun-21 20:30N 46°33' E 030°49'0 0.0
2018-Jun-21 19:57N 46°33' E 030°49'0 0.0
2018-Jun-21 19:30N 46°33' E 030°49'0 0.0
2018-Jun-21 19:00N 46°33' E 030°49'0 0.0
2018-Jun-21 18:30N 46°33' E 030°49'0 0.0
2018-Jun-21 17:59N 46°33' E 030°49'0 0.0
2018-Jun-21 17:30N 46°33' E 030°49'0 0.0
2018-Jun-21 17:00N 46°33' E 030°49'0 0.0
2018-Jun-21 16:30N 46°33' E 030°49'0 0.0
2018-Jun-21 16:00N 46°33' E 030°49'0 0.0
2018-Jun-21 15:30N 46°33' E 030°49'0 0.0
2018-Jun-21 15:00N 46°33' E 030°49'0 0.0
2018-Jun-21 14:30N 46°33' E 030°49'0 0.0
2018-Jun-21 13:58N 46°33' E 030°49'0 0.0
2018-Jun-21 13:30N 46°33' E 030°49'0 0.0
2018-Jun-21 13:00N 46°33' E 030°49'0 0.0
2018-Jun-21 12:30N 46°33' E 030°49'0 0.0
2018-Jun-21 12:00N 46°33' E 030°49'0 0.0
2018-Jun-21 11:30N 46°33' E 030°49'0 0.0
2018-Jun-21 11:00N 46°33' E 030°49'0 0.0
2018-Jun-21 10:28N 46°33' E 030°49'0 0.0
2018-Jun-21 10:00N 46°33' E 030°49'0 0.0
2018-Jun-21 09:30N 46°33' E 030°49'0 0.0
2018-Jun-21 08:58N 46°33' E 030°49'0 0.0
2018-Jun-21 08:30N 46°33' E 030°49'0 0.0
2018-Jun-21 08:00N 46°33' E 030°49'0 0.0
2018-Jun-21 07:30N 46°33' E 030°49'0 0.0
2018-Jun-21 07:00N 46°33' E 030°49'0 0.0
2018-Jun-21 06:30N 46°33' E 030°49'0 0.0
2018-Jun-21 06:00N 46°33' E 030°49'0 0.0
2018-Jun-21 05:30N 46°33' E 030°49'0 0.0
2018-Jun-21 05:00N 46°33' E 030°49'0 0.0
2018-Jun-21 04:30N 46°33' E 030°49'0 0.0
2018-Jun-21 04:00N 46°33' E 030°49'0 0.0
2018-Jun-21 03:30N 46°33' E 030°49'0 0.0
2018-Jun-21 02:58N 46°33' E 030°49'0 0.0
2018-Jun-21 02:30N 46°33' E 030°49'0 0.0
2018-Jun-21 02:00N 46°33' E 030°49'0 0.0
2018-Jun-21 01:30N 46°33' E 030°49'0 0.0
2018-Jun-21 00:56N 46°33' E 030°49'0 0.0
2018-Jun-21 00:30N 46°33' E 030°49'0 0.0
2018-Jun-21 00:00N 46°33' E 030°49'0 0.0
2018-Jun-20 23:30N 46°33' E 030°49'0 0.0
2018-Jun-20 23:00N 46°33' E 030°49'0 0.0
2018-Jun-20 22:30N 46°33' E 030°49'0 0.0
2018-Jun-20 22:00N 46°33' E 030°49'0 0.0
2018-Jun-20 21:30N 46°33' E 030°49'0 0.0
2018-Jun-20 20:59N 46°33' E 030°49'0 0.0
2018-Jun-20 20:30N 46°33' E 030°49'0 0.0
2018-Jun-20 20:00N 46°33' E 030°49'0 0.0
2018-Jun-20 19:30N 46°33' E 030°49'0 0.0
2018-Jun-20 19:00N 46°33' E 030°49'0 0.0
2018-Jun-20 18:30N 46°33' E 030°49'0 0.0
2018-Jun-20 17:58N 46°33' E 030°49'0 0.0
2018-Jun-20 17:30N 46°33' E 030°49'0 0.0
2018-Jun-20 17:00N 46°33' E 030°49'0 0.0
2018-Jun-20 16:30N 46°33' E 030°49'0 0.0
2018-Jun-20 16:00N 46°33' E 030°49'0 0.0
2018-Jun-20 15:30N 46°33' E 030°49'610.6
2018-Jun-20 14:58N 46°27' E 030°48'818.0
2018-Jun-20 14:30N 46°20' E 030°42'3 3.4
2018-Jun-20 13:38N 46°20' E 030°38'0 0.0
2018-Jun-20 13:30N 46°20' E 030°38'912.9
2018-Jun-20 12:48N 46°24' E 030°50'826.7
2018-Jun-20 12:31N 46°30' E 030°56'5 2.5
2018-Jun-20 10:27N 46°35' E 030°60'0 0.0
2018-Jun-20 09:59N 46°35' E 030°60'0 0.8
2018-Jun-20 09:30N 46°34' E 031°00'0 0.7
2018-Jun-20 08:57N 46°34' E 030°60'0 0.2
2018-Jun-20 08:30N 46°34' E 030°60'1 1.7
2018-Jun-20 08:00N 46°34' E 030°59'0 0.6
2018-Jun-20 07:30N 46°33' E 030°58'1 1.1
2018-Jun-20 07:00N 46°34' E 030°59'2 4.7
2018-Jun-20 06:30N 46°33' E 030°56'5 9.3
2018-Jun-20 06:00N 46°33' E 030°49'0 0.0
2018-Jun-20 05:28N 46°33' E 030°49'0 0.0
2018-Jun-20 05:01N 46°33' E 030°49'0 0.0
2018-Jun-20 04:30N 46°33' E 030°49'0 0.0
2018-Jun-20 04:00N 46°33' E 030°49'0 0.0
2018-Jun-20 03:30N 46°33' E 030°49'0 0.0
2018-Jun-20 03:00N 46°33' E 030°49'0 0.0
2018-Jun-20 02:28N 46°33' E 030°49'0 0.0
2018-Jun-20 01:58N 46°33' E 030°49'0 0.0
2018-Jun-20 01:30N 46°33' E 030°49'0 0.0
2018-Jun-20 01:00N 46°33' E 030°49'0 0.0
2018-Jun-20 00:30N 46°33' E 030°49'0 0.0
2018-Jun-20 00:00N 46°33' E 030°49'0 0.0
2018-Jun-19 23:30N 46°33' E 030°49'0 0.0
2018-Jun-19 23:00N 46°33' E 030°49'0 0.0
2018-Jun-19 22:29N 46°33' E 030°49'0 0.0
2018-Jun-19 21:04N 46°33' E 030°49'0 0.0
2018-Jun-19 21:00N 46°33' E 030°49'0 0.0
2018-Jun-19 20:28N 46°33' E 030°49'0 0.0
2018-Jun-19 20:00N 46°33' E 030°49'0 0.0
2018-Jun-19 19:30N 46°33' E 030°49'0 0.0
2018-Jun-19 19:00N 46°33' E 030°49'0 0.0
2018-Jun-19 18:31N 46°33' E 030°49'0 0.0
2018-Jun-19 18:00N 46°33' E 030°49'0 0.0
2018-Jun-19 17:30N 46°33' E 030°49'0 0.0
2018-Jun-19 17:00N 46°33' E 030°49'0 0.0
2018-Jun-19 16:30N 46°33' E 030°49'0 0.0
2018-Jun-19 16:00N 46°33' E 030°49'0 0.0
2018-Jun-19 15:30N 46°33' E 030°49'0 0.0
2018-Jun-19 15:00N 46°33' E 030°49'0 0.0
2018-Jun-19 14:30N 46°33' E 030°49'0 0.0
2018-Jun-19 14:00N 46°33' E 030°49'0 0.0
2018-Jun-19 13:30N 46°33' E 030°49'0 0.0
2018-Jun-19 13:00N 46°33' E 030°49'0 0.0
2018-Jun-19 12:30N 46°33' E 030°49'0 0.0
2018-Jun-19 12:00N 46°33' E 030°49'0 0.0
2018-Jun-19 11:30N 46°33' E 030°49'0 0.0
2018-Jun-19 11:00N 46°33' E 030°49'0 0.0
2018-Jun-19 10:30N 46°33' E 030°49'0 0.0
2018-Jun-19 09:59N 46°33' E 030°49'0 0.0
2018-Jun-19 09:30N 46°33' E 030°49'0 0.0
2018-Jun-19 09:00N 46°33' E 030°49'0 0.0
2018-Jun-19 08:30N 46°33' E 030°49'0 0.0
2018-Jun-19 08:00N 46°33' E 030°49'0 0.0
2018-Jun-19 07:30N 46°33' E 030°49'0 0.0
2018-Jun-19 06:59N 46°33' E 030°49'0 0.0
2018-Jun-19 06:30N 46°33' E 030°49'0 0.0
2018-Jun-19 06:00N 46°33' E 030°49'0 0.0
2018-Jun-19 05:30N 46°33' E 030°49'0 0.0
2018-Jun-19 05:00N 46°33' E 030°49'0 0.0
2018-Jun-19 04:30N 46°33' E 030°49'0 0.0
2018-Jun-19 03:58N 46°33' E 030°49'0 0.0
2018-Jun-19 03:30N 46°33' E 030°49'0 0.0
2018-Jun-19 03:00N 46°33' E 030°49'0 0.0
2018-Jun-19 02:30N 46°33' E 030°49'0 0.0
2018-Jun-19 02:00N 46°33' E 030°49'0 0.0
2018-Jun-19 01:30N 46°33' E 030°49'0 0.0
2018-Jun-19 01:00N 46°33' E 030°49'0 0.0
2018-Jun-19 00:30N 46°33' E 030°49'0 0.0
2018-Jun-19 00:00N 46°33' E 030°49'0 0.0
2018-Jun-18 23:28N 46°33' E 030°49'0 0.0
2018-Jun-18 23:00N 46°33' E 030°49'0 0.0
2018-Jun-18 22:31N 46°33' E 030°49'0 0.0
2018-Jun-18 21:59N 46°33' E 030°49'0 0.0
2018-Jun-18 21:30N 46°33' E 030°49'0 0.0
2018-Jun-18 20:59N 46°33' E 030°49'0 0.0
2018-Jun-18 20:30N 46°33' E 030°49'0 0.0
2018-Jun-18 19:56N 46°33' E 030°49'0 0.0
2018-Jun-18 19:30N 46°33' E 030°49'0 0.0
2018-Jun-18 19:00N 46°33' E 030°49'0 0.0
2018-Jun-18 18:31N 46°33' E 030°49'0 0.0
2018-Jun-18 18:00N 46°33' E 030°49'0 0.0
2018-Jun-18 17:30N 46°33' E 030°49'0 0.0
2018-Jun-18 17:00N 46°33' E 030°49'0 0.0
2018-Jun-18 16:30N 46°33' E 030°49'0 0.0
2018-Jun-18 16:00N 46°33' E 030°49'0 0.0
2018-Jun-18 15:30N 46°33' E 030°49'0 0.0
2018-Jun-18 15:00N 46°33' E 030°49'0 0.0
2018-Jun-18 14:30N 46°33' E 030°49'0 0.0
2018-Jun-18 14:00N 46°33' E 030°49'0 0.0
2018-Jun-18 13:30N 46°33' E 030°49'0 0.0
2018-Jun-18 13:00N 46°33' E 030°49'0 0.0
2018-Jun-18 12:29N 46°33' E 030°49'0 0.0
2018-Jun-18 12:00N 46°33' E 030°49'0 0.0
2018-Jun-18 11:25N 46°33' E 030°49'0 0.0
2018-Jun-18 11:00N 46°33' E 030°49'0 0.0
2018-Jun-18 10:28N 46°33' E 030°49'0 0.0
2018-Jun-18 10:00N 46°33' E 030°49'0 0.0
2018-Jun-18 09:30N 46°33' E 030°49'0 0.0
2018-Jun-18 09:00N 46°33' E 030°49'0 0.0
2018-Jun-18 08:30N 46°33' E 030°49'0 0.0
2018-Jun-18 08:00N 46°33' E 030°49'0 0.0
2018-Jun-18 07:30N 46°33' E 030°49'0 0.0
2018-Jun-18 07:00N 46°33' E 030°49'0 0.0
2018-Jun-18 06:30N 46°33' E 030°49'0 0.0
2018-Jun-18 06:00N 46°33' E 030°49'0 0.0
2018-Jun-18 05:30N 46°33' E 030°49'0 0.0
2018-Jun-18 05:00N 46°33' E 030°49'0 0.0
2018-Jun-18 04:30N 46°33' E 030°49'0 0.0
2018-Jun-18 04:00N 46°33' E 030°49'0 0.0
2018-Jun-18 03:30N 46°33' E 030°49'0 0.0
2018-Jun-18 03:00N 46°33' E 030°49'0 0.0
2018-Jun-18 02:30N 46°33' E 030°49'0 0.0
2018-Jun-18 02:00N 46°33' E 030°49'0 0.0
2018-Jun-18 01:30N 46°33' E 030°49'0 0.0
2018-Jun-18 01:00N 46°33' E 030°49'0 0.0
2018-Jun-18 00:30N 46°33' E 030°49'0 0.0
2018-Jun-18 00:00N 46°33' E 030°49'0 0.0
2018-Jun-17 23:31N 46°33' E 030°49'0 0.0
2018-Jun-17 23:00N 46°33' E 030°49'0 0.0
2018-Jun-17 22:30N 46°33' E 030°49'0 0.0
2018-Jun-17 21:59N 46°33' E 030°49'0 0.0
2018-Jun-17 21:30N 46°33' E 030°49'0 0.0
2018-Jun-17 21:00N 46°33' E 030°49'0 0.0
2018-Jun-17 20:30N 46°33' E 030°49'0 0.0
2018-Jun-17 20:00N 46°33' E 030°49'0 0.0
2018-Jun-17 19:29N 46°33' E 030°49'0 0.0
2018-Jun-17 19:00N 46°33' E 030°49'0 0.0
2018-Jun-17 18:27N 46°33' E 030°49'0 0.0
2018-Jun-17 18:00N 46°33' E 030°49'0 0.0
2018-Jun-17 17:30N 46°33' E 030°49'0 0.0
2018-Jun-17 16:59N 46°33' E 030°49'0 0.0
2018-Jun-17 16:30N 46°33' E 030°49'0 0.0
2018-Jun-17 16:00N 46°33' E 030°49'0 0.0
2018-Jun-17 15:30N 46°33' E 030°49'0 0.0
2018-Jun-17 15:00N 46°33' E 030°49'0 0.0
2018-Jun-17 14:30N 46°33' E 030°49'0 0.0
2018-Jun-17 14:01N 46°33' E 030°49'0 0.0
2018-Jun-17 13:30N 46°33' E 030°49'0 0.0
2018-Jun-17 13:00N 46°33' E 030°49'0 0.0
2018-Jun-17 12:31N 46°33' E 030°49'0 0.0
2018-Jun-17 12:00N 46°33' E 030°49'0 0.0
2018-Jun-17 11:30N 46°33' E 030°49'0 0.0
2018-Jun-17 11:00N 46°33' E 030°49'0 0.0
2018-Jun-17 10:28N 46°33' E 030°49'0 0.0
2018-Jun-17 10:00N 46°33' E 030°49'0 0.0
2018-Jun-17 09:30N 46°33' E 030°49'0 0.0
2018-Jun-17 09:00N 46°33' E 030°49'0 0.0
2018-Jun-17 08:30N 46°33' E 030°49'0 0.0
2018-Jun-17 08:00N 46°33' E 030°49'0 0.0
2018-Jun-17 07:29N 46°33' E 030°49'0 0.0
2018-Jun-17 07:00N 46°33' E 030°49'0 0.0
2018-Jun-17 06:30N 46°33' E 030°49'0 0.0
2018-Jun-17 06:00N 46°33' E 030°49'0 0.0
2018-Jun-17 05:29N 46°33' E 030°49'0 0.0
2018-Jun-17 05:00N 46°33' E 030°49'0 0.0
2018-Jun-17 04:30N 46°33' E 030°49'0 0.0
2018-Jun-17 04:00N 46°33' E 030°49'0 0.0
2018-Jun-17 03:30N 46°33' E 030°49'0 0.0
2018-Jun-17 02:59N 46°33' E 030°49'0 0.0
2018-Jun-17 02:29N 46°33' E 030°49'0 0.0
2018-Jun-17 02:00N 46°33' E 030°49'0 0.0
2018-Jun-17 01:30N 46°33' E 030°49'0 0.0
2018-Jun-17 01:00N 46°33' E 030°49'0 0.0
2018-Jun-17 00:31N 46°33' E 030°49'0 0.0
2018-Jun-17 00:00N 46°33' E 030°49'0 0.0
2018-Jun-16 23:30N 46°33' E 030°49'0 0.0
2018-Jun-16 23:00N 46°33' E 030°49'0 0.0
2018-Jun-16 22:25N 46°33' E 030°49'0 0.0
2018-Jun-16 21:59N 46°33' E 030°49'0 0.0
2018-Jun-16 21:29N 46°33' E 030°49'0 0.0
2018-Jun-16 20:59N 46°33' E 030°49'0 0.0
2018-Jun-16 20:27N 46°33' E 030°49'0 0.0
2018-Jun-16 20:00N 46°33' E 030°49'0 0.0
2018-Jun-16 19:30N 46°33' E 030°49'0 0.0
2018-Jun-16 19:00N 46°33' E 030°49'0 0.0
2018-Jun-16 18:30N 46°33' E 030°49'0 0.0
2018-Jun-16 18:00N 46°33' E 030°49'0 0.0
2018-Jun-16 17:31N 46°33' E 030°49'0 0.0
2018-Jun-16 17:00N 46°33' E 030°49'0 0.0
2018-Jun-16 16:29N 46°33' E 030°49'0 0.0
2018-Jun-16 16:00N 46°33' E 030°49'0 0.0
2018-Jun-16 15:30N 46°33' E 030°49'0 0.0
2018-Jun-16 15:00N 46°33' E 030°49'0 0.0
2018-Jun-16 14:30N 46°33' E 030°49'0 0.0
2018-Jun-16 13:59N 46°33' E 030°49'0 0.0
2018-Jun-16 13:30N 46°33' E 030°49'0 0.0
2018-Jun-16 13:00N 46°33' E 030°49'0 0.0
2018-Jun-16 12:24N 46°33' E 030°49'0 0.0
2018-Jun-16 11:58N 46°33' E 030°49'0 0.0
2018-Jun-16 11:28N 46°33' E 030°49'0 0.0
2018-Jun-16 11:00N 46°33' E 030°49'0 0.0
2018-Jun-16 10:30N 46°33' E 030°49'0 0.0
2018-Jun-16 09:59N 46°33' E 030°49'0 0.0
2018-Jun-16 09:30N 46°33' E 030°49'0 0.0
2018-Jun-16 09:00N 46°33' E 030°49'0 0.0
2018-Jun-16 08:30N 46°33' E 030°49'0 0.0
2018-Jun-16 08:00N 46°33' E 030°49'0 0.0
2018-Jun-16 07:30N 46°33' E 030°49'0 0.0
2018-Jun-16 07:00N 46°33' E 030°49'0 0.0
2018-Jun-16 06:30N 46°33' E 030°49'0 0.0
2018-Jun-16 05:56N 46°33' E 030°49'0 0.0
2018-Jun-16 05:28N 46°33' E 030°49'0 0.0
2018-Jun-16 04:59N 46°33' E 030°49'0 0.0
2018-Jun-16 04:30N 46°33' E 030°49'0 0.0
2018-Jun-16 03:55N 46°33' E 030°49'0 0.0
2018-Jun-16 03:30N 46°33' E 030°49'0 0.0
2018-Jun-16 02:56N 46°33' E 030°49'0 0.0
2018-Jun-16 02:26N 46°33' E 030°49'0 0.0
2018-Jun-16 01:57N 46°33' E 030°49'0 0.0
2018-Jun-16 01:30N 46°33' E 030°49'0 0.0
2018-Jun-16 00:51N 46°33' E 030°49'0 0.0
2018-Jun-16 00:29N 46°33' E 030°49'0 0.0
2018-Jun-15 23:51N 46°33' E 030°49'0 0.0
2018-Jun-15 23:30N 46°33' E 030°49'0 0.0
2018-Jun-15 22:57N 46°33' E 030°49'0 0.0
2018-Jun-15 22:29N 46°33' E 030°49'0 0.0
2018-Jun-15 21:48N 46°33' E 030°49'0 0.0
2018-Jun-15 21:17N 46°33' E 030°49'0 0.0
2018-Jun-15 20:56N 46°33' E 030°49'0 0.0
2018-Jun-15 20:30N 46°33' E 030°49'0 0.0
2018-Jun-15 19:59N 46°33' E 030°49'0 0.0
2018-Jun-15 19:30N 46°33' E 030°49'0 0.0
2018-Jun-15 18:59N 46°33' E 030°49'0 0.0
2018-Jun-15 18:24N 46°33' E 030°49'0 0.0
2018-Jun-15 17:59N 46°33' E 030°49'0 0.0
2018-Jun-15 17:27N 46°33' E 030°49'0 0.0
2018-Jun-15 16:58N 46°33' E 030°49'0 0.0
2018-Jun-15 16:29N 46°33' E 030°49'0 0.0
2018-Jun-15 15:58N 46°33' E 030°49'0 0.0
2018-Jun-15 15:29N 46°33' E 030°49'0 0.0
2018-Jun-15 14:56N 46°33' E 030°49'0 0.0
2018-Jun-15 14:28N 46°33' E 030°49'0 0.0
2018-Jun-15 13:59N 46°33' E 030°49'0 0.0
2018-Jun-15 13:29N 46°33' E 030°49'0 0.0
2018-Jun-15 12:59N 46°33' E 030°49'0 0.0
2018-Jun-15 12:30N 46°33' E 030°49'0 0.0
2018-Jun-15 12:00N 46°33' E 030°49'0 0.0
2018-Jun-15 11:23N 46°33' E 030°49'0 0.0
2018-Jun-15 10:59N 46°33' E 030°49'0 0.0
2018-Jun-15 10:29N 46°33' E 030°49'0 0.0
2018-Jun-15 09:59N 46°33' E 030°49'0 0.0
2018-Jun-15 09:14N 46°33' E 030°49'0 0.0
2018-Jun-15 08:59N 46°33' E 030°49'0 0.0
2018-Jun-15 08:30N 46°33' E 030°49'0 0.0
2018-Jun-15 08:00N 46°33' E 030°49'0 0.0
2018-Jun-15 07:30N 46°33' E 030°49'0 0.0
2018-Jun-15 07:00N 46°33' E 030°49'0 0.0
2018-Jun-15 06:30N 46°33' E 030°49'0 0.0
2018-Jun-15 05:51N 46°33' E 030°49'0 0.0
2018-Jun-15 05:17N 46°33' E 030°49'0 0.0
2018-Jun-15 04:53N 46°33' E 030°49'0 0.0
2018-Jun-15 04:30N 46°33' E 030°49'0 0.0
2018-Jun-15 03:55N 46°33' E 030°49'0 0.0
2018-Jun-15 03:27N 46°33' E 030°49'0 0.0
2018-Jun-15 02:59N 46°33' E 030°49'0 0.0
2018-Jun-15 02:26N 46°33' E 030°49'0 0.0
2018-Jun-15 01:59N 46°33' E 030°49'0 0.0
2018-Jun-15 01:14N 46°33' E 030°49'0 0.0
2018-Jun-15 00:58N 46°33' E 030°49'0 0.0
2018-Jun-15 00:22N 46°33' E 030°49'0 0.0
2018-Jun-15 00:01N 46°33' E 030°49'0 0.0
2018-Jun-14 23:30N 46°33' E 030°49'0 0.0
2018-Jun-14 23:00N 46°33' E 030°49'0 0.0
2018-Jun-14 22:30N 46°33' E 030°49'0 0.0
2018-Jun-14 22:00N 46°33' E 030°49'0 0.0
2018-Jun-14 21:30N 46°33' E 030°49'0 0.0
2018-Jun-14 20:58N 46°33' E 030°49'0 0.0
2018-Jun-14 20:30N 46°33' E 030°49'0 0.0
2018-Jun-14 20:00N 46°33' E 030°49'0 0.0
2018-Jun-14 19:30N 46°33' E 030°49'0 0.0
2018-Jun-14 19:00N 46°33' E 030°49'0 0.0
2018-Jun-14 18:30N 46°33' E 030°49'0 0.0
2018-Jun-14 18:00N 46°33' E 030°49'0 0.0
2018-Jun-14 17:30N 46°33' E 030°49'0 0.0
2018-Jun-14 17:00N 46°33' E 030°49'0 0.0
2018-Jun-14 16:30N 46°33' E 030°49'0 0.0
2018-Jun-14 16:00N 46°33' E 030°49'0 0.0
2018-Jun-14 15:30N 46°33' E 030°49'0 0.0
2018-Jun-14 15:00N 46°33' E 030°49'0 0.0
2018-Jun-14 14:30N 46°33' E 030°49'0 0.0
2018-Jun-14 14:00N 46°33' E 030°49'0 0.0
2018-Jun-14 13:30N 46°33' E 030°49'0 0.0
2018-Jun-14 13:00N 46°33' E 030°49'0 0.0
2018-Jun-14 12:29N 46°33' E 030°49'0 0.0
2018-Jun-14 11:58N 46°33' E 030°49'0 0.0
2018-Jun-14 11:29N 46°33' E 030°49'0 0.0
2018-Jun-14 10:59N 46°33' E 030°49'0 0.0
2018-Jun-14 10:29N 46°33' E 030°49'0 0.0
2018-Jun-14 10:00N 46°33' E 030°49'0 0.0
2018-Jun-14 09:26N 46°33' E 030°49'0 0.0
2018-Jun-14 08:57N 46°33' E 030°49'0 0.0
2018-Jun-14 08:30N 46°33' E 030°49'0 0.0
2018-Jun-14 08:00N 46°33' E 030°49'0 0.0
2018-Jun-14 07:30N 46°33' E 030°49'0 0.0
2018-Jun-14 07:00N 46°33' E 030°49'  

Dump ship's entire track history